sensor_id;sensor_type;location;lat;lon;timestamp;P1;durP1;ratioP1;P2;durP2;ratioP2
20080;SDS011;10200;49.232;9.222;2023-12-20T00:02:16;5.50;;;3.90;;
20080;SDS011;10200;49.232;9.222;2023-12-20T00:04:42;5.70;;;3.93;;
20080;SDS011;10200;49.232;9.222;2023-12-20T00:07:07;8.77;;;4.53;;
20080;SDS011;10200;49.232;9.222;2023-12-20T00:09:33;6.50;;;4.60;;
20080;SDS011;10200;49.232;9.222;2023-12-20T00:11:58;6.90;;;4.77;;
20080;SDS011;10200;49.232;9.222;2023-12-20T00:14:24;7.10;;;5.03;;
20080;SDS011;10200;49.232;9.222;2023-12-20T00:16:50;5.37;;;4.57;;
20080;SDS011;10200;49.232;9.222;2023-12-20T00:19:15;6.20;;;4.73;;
20080;SDS011;10200;49.232;9.222;2023-12-20T00:21:41;7.10;;;4.53;;
20080;SDS011;10200;49.232;9.222;2023-12-20T00:24:07;6.50;;;4.70;;
20080;SDS011;10200;49.232;9.222;2023-12-20T00:26:32;5.60;;;4.40;;
20080;SDS011;10200;49.232;9.222;2023-12-20T00:28:58;6.00;;;4.40;;
20080;SDS011;10200;49.232;9.222;2023-12-20T00:31:23;5.20;;;4.33;;
20080;SDS011;10200;49.232;9.222;2023-12-20T00:33:49;6.93;;;3.73;;
20080;SDS011;10200;49.232;9.222;2023-12-20T00:36:14;5.07;;;4.17;;
20080;SDS011;10200;49.232;9.222;2023-12-20T00:38:40;5.80;;;4.83;;
20080;SDS011;10200;49.232;9.222;2023-12-20T00:41:06;8.57;;;4.60;;
20080;SDS011;10200;49.232;9.222;2023-12-20T00:43:31;7.93;;;4.43;;
20080;SDS011;10200;49.232;9.222;2023-12-20T00:45:57;5.90;;;4.03;;
20080;SDS011;10200;49.232;9.222;2023-12-20T00:48:24;5.70;;;4.17;;
20080;SDS011;10200;49.232;9.222;2023-12-20T00:50:52;5.43;;;4.07;;
20080;SDS011;10200;49.232;9.222;2023-12-20T00:53:17;7.77;;;4.77;;
20080;SDS011;10200;49.232;9.222;2023-12-20T00:55:43;6.47;;;4.73;;
20080;SDS011;10200;49.232;9.222;2023-12-20T00:58:09;6.13;;;4.43;;
20080;SDS011;10200;49.232;9.222;2023-12-20T01:00:35;8.17;;;4.77;;
20080;SDS011;10200;49.232;9.222;2023-12-20T01:03:00;6.27;;;4.83;;
20080;SDS011;10200;49.232;9.222;2023-12-20T01:05:26;7.20;;;4.83;;
20080;SDS011;10200;49.232;9.222;2023-12-20T01:07:52;6.23;;;4.77;;
20080;SDS011;10200;49.232;9.222;2023-12-20T01:10:17;6.67;;;5.23;;
20080;SDS011;10200;49.232;9.222;2023-12-20T01:12:43;6.47;;;4.87;;
20080;SDS011;10200;49.232;9.222;2023-12-20T01:15:09;6.40;;;4.90;;
20080;SDS011;10200;49.232;9.222;2023-12-20T01:17:35;5.87;;;4.67;;
20080;SDS011;10200;49.232;9.222;2023-12-20T01:20:01;6.17;;;4.80;;
20080;SDS011;10200;49.232;9.222;2023-12-20T01:22:26;5.07;;;3.97;;
20080;SDS011;10200;49.232;9.222;2023-12-20T01:24:52;6.17;;;4.47;;
20080;SDS011;10200;49.232;9.222;2023-12-20T01:27:17;5.30;;;4.33;;
20080;SDS011;10200;49.232;9.222;2023-12-20T01:29:43;5.20;;;4.13;;
20080;SDS011;10200;49.232;9.222;2023-12-20T01:32:09;5.03;;;3.80;;
20080;SDS011;10200;49.232;9.222;2023-12-20T01:34:34;7.20;;;4.13;;
20080;SDS011;10200;49.232;9.222;2023-12-20T01:37:00;6.13;;;4.57;;
20080;SDS011;10200;49.232;9.222;2023-12-20T01:39:26;5.20;;;3.73;;
20080;SDS011;10200;49.232;9.222;2023-12-20T01:41:52;4.37;;;3.50;;
20080;SDS011;10200;49.232;9.222;2023-12-20T01:44:17;3.97;;;3.37;;
20080;SDS011;10200;49.232;9.222;2023-12-20T01:46:43;5.47;;;3.80;;
20080;SDS011;10200;49.232;9.222;2023-12-20T01:49:09;5.50;;;3.50;;
20080;SDS011;10200;49.232;9.222;2023-12-20T01:51:34;4.30;;;3.50;;
20080;SDS011;10200;49.232;9.222;2023-12-20T01:54:01;5.33;;;3.67;;
20080;SDS011;10200;49.232;9.222;2023-12-20T01:56:26;4.27;;;3.30;;
20080;SDS011;10200;49.232;9.222;2023-12-20T01:58:53;5.30;;;3.53;;
20080;SDS011;10200;49.232;9.222;2023-12-20T02:01:20;3.97;;;2.97;;
20080;SDS011;10200;49.232;9.222;2023-12-20T02:03:46;3.70;;;3.00;;
20080;SDS011;10200;49.232;9.222;2023-12-20T02:06:12;3.10;;;2.60;;
20080;SDS011;10200;49.232;9.222;2023-12-20T02:08:38;3.20;;;2.87;;
20080;SDS011;10200;49.232;9.222;2023-12-20T02:11:03;3.23;;;2.60;;
20080;SDS011;10200;49.232;9.222;2023-12-20T02:13:30;4.90;;;2.70;;
20080;SDS011;10200;49.232;9.222;2023-12-20T02:15:56;2.53;;;2.10;;
20080;SDS011;10200;49.232;9.222;2023-12-20T02:18:21;6.53;;;3.17;;
20080;SDS011;10200;49.232;9.222;2023-12-20T02:20:47;3.37;;;2.43;;
20080;SDS011;10200;49.232;9.222;2023-12-20T02:23:13;4.73;;;2.17;;
20080;SDS011;10200;49.232;9.222;2023-12-20T02:25:38;3.00;;;2.20;;
20080;SDS011;10200;49.232;9.222;2023-12-20T02:28:04;2.20;;;2.00;;
20080;SDS011;10200;49.232;9.222;2023-12-20T02:30:31;1.97;;;1.70;;
20080;SDS011;10200;49.232;9.222;2023-12-20T02:32:57;3.63;;;2.00;;
20080;SDS011;10200;49.232;9.222;2023-12-20T02:35:25;2.63;;;1.80;;
20080;SDS011;10200;49.232;9.222;2023-12-20T02:37:51;2.60;;;1.90;;
20080;SDS011;10200;49.232;9.222;2023-12-20T02:40:16;1.93;;;1.60;;
20080;SDS011;10200;49.232;9.222;2023-12-20T02:42:42;2.50;;;1.97;;
20080;SDS011;10200;49.232;9.222;2023-12-20T02:45:08;2.00;;;1.80;;
20080;SDS011;10200;49.232;9.222;2023-12-20T02:47:34;3.87;;;1.60;;
20080;SDS011;10200;49.232;9.222;2023-12-20T02:49:59;2.60;;;1.57;;
20080;SDS011;10200;49.232;9.222;2023-12-20T02:52:25;2.83;;;1.80;;
20080;SDS011;10200;49.232;9.222;2023-12-20T02:54:52;2.23;;;1.73;;
20080;SDS011;10200;49.232;9.222;2023-12-20T02:57:18;2.13;;;1.73;;
20080;SDS011;10200;49.232;9.222;2023-12-20T02:59:43;2.27;;;1.77;;
20080;SDS011;10200;49.232;9.222;2023-12-20T03:02:09;2.17;;;1.90;;
20080;SDS011;10200;49.232;9.222;2023-12-20T03:04:34;2.67;;;2.20;;
20080;SDS011;10200;49.232;9.222;2023-12-20T03:07:00;2.30;;;2.00;;
20080;SDS011;10200;49.232;9.222;2023-12-20T03:09:26;3.00;;;1.60;;
20080;SDS011;10200;49.232;9.222;2023-12-20T03:11:51;2.00;;;1.70;;
20080;SDS011;10200;49.232;9.222;2023-12-20T03:14:17;2.43;;;1.70;;
20080;SDS011;10200;49.232;9.222;2023-12-20T03:16:46;2.07;;;1.97;;
20080;SDS011;10200;49.232;9.222;2023-12-20T03:19:14;3.73;;;2.20;;
20080;SDS011;10200;49.232;9.222;2023-12-20T03:21:41;3.50;;;2.17;;
20080;SDS011;10200;49.232;9.222;2023-12-20T03:24:06;3.03;;;2.13;;
20080;SDS011;10200;49.232;9.222;2023-12-20T03:26:32;2.73;;;2.37;;
20080;SDS011;10200;49.232;9.222;2023-12-20T03:28:57;3.80;;;1.80;;
20080;SDS011;10200;49.232;9.222;2023-12-20T03:31:23;2.43;;;2.13;;
20080;SDS011;10200;49.232;9.222;2023-12-20T03:33:48;3.33;;;2.43;;
20080;SDS011;10200;49.232;9.222;2023-12-20T03:36:14;2.40;;;2.20;;
20080;SDS011;10200;49.232;9.222;2023-12-20T03:38:39;3.30;;;2.70;;
20080;SDS011;10200;49.232;9.222;2023-12-20T03:41:05;2.80;;;2.20;;
20080;SDS011;10200;49.232;9.222;2023-12-20T03:43:32;2.40;;;2.20;;
20080;SDS011;10200;49.232;9.222;2023-12-20T03:45:57;3.23;;;2.23;;
20080;SDS011;10200;49.232;9.222;2023-12-20T03:48:23;2.30;;;2.10;;
20080;SDS011;10200;49.232;9.222;2023-12-20T03:50:49;2.10;;;1.73;;
20080;SDS011;10200;49.232;9.222;2023-12-20T03:53:14;2.53;;;2.00;;
20080;SDS011;10200;49.232;9.222;2023-12-20T03:55:40;1.97;;;1.67;;
20080;SDS011;10200;49.232;9.222;2023-12-20T03:58:05;2.40;;;2.20;;
20080;SDS011;10200;49.232;9.222;2023-12-20T04:00:31;3.23;;;2.33;;
20080;SDS011;10200;49.232;9.222;2023-12-20T04:02:56;2.80;;;2.30;;
20080;SDS011;10200;49.232;9.222;2023-12-20T04:05:22;3.47;;;1.97;;
20080;SDS011;10200;49.232;9.222;2023-12-20T04:07:47;1.90;;;1.77;;
20080;SDS011;10200;49.232;9.222;2023-12-20T04:10:15;2.43;;;2.00;;
20080;SDS011;10200;49.232;9.222;2023-12-20T04:12:40;2.30;;;1.90;;
20080;SDS011;10200;49.232;9.222;2023-12-20T04:15:06;1.77;;;1.67;;
20080;SDS011;10200;49.232;9.222;2023-12-20T04:17:34;2.03;;;1.77;;
20080;SDS011;10200;49.232;9.222;2023-12-20T04:20:01;2.53;;;2.10;;
20080;SDS011;10200;49.232;9.222;2023-12-20T04:22:26;3.03;;;2.37;;
20080;SDS011;10200;49.232;9.222;2023-12-20T04:24:52;2.43;;;2.00;;
20080;SDS011;10200;49.232;9.222;2023-12-20T04:27:17;2.60;;;2.23;;
20080;SDS011;10200;49.232;9.222;2023-12-20T04:29:43;5.00;;;2.30;;
20080;SDS011;10200;49.232;9.222;2023-12-20T04:32:08;3.03;;;2.43;;
20080;SDS011;10200;49.232;9.222;2023-12-20T04:34:34;2.27;;;2.07;;
20080;SDS011;10200;49.232;9.222;2023-12-20T04:36:59;2.77;;;2.47;;
20080;SDS011;10200;49.232;9.222;2023-12-20T04:39:26;2.63;;;2.43;;
20080;SDS011;10200;49.232;9.222;2023-12-20T04:41:52;4.10;;;2.57;;
20080;SDS011;10200;49.232;9.222;2023-12-20T04:44:17;2.30;;;2.10;;
20080;SDS011;10200;49.232;9.222;2023-12-20T04:46:43;3.33;;;2.37;;
20080;SDS011;10200;49.232;9.222;2023-12-20T04:49:09;2.23;;;2.03;;
20080;SDS011;10200;49.232;9.222;2023-12-20T04:51:34;2.00;;;1.80;;
20080;SDS011;10200;49.232;9.222;2023-12-20T04:54:01;2.80;;;2.10;;
20080;SDS011;10200;49.232;9.222;2023-12-20T04:56:27;2.47;;;2.10;;
20080;SDS011;10200;49.232;9.222;2023-12-20T04:58:52;2.70;;;2.47;;
20080;SDS011;10200;49.232;9.222;2023-12-20T05:01:18;3.30;;;2.30;;
20080;SDS011;10200;49.232;9.222;2023-12-20T05:03:43;4.43;;;1.90;;
20080;SDS011;10200;49.232;9.222;2023-12-20T05:06:09;2.40;;;2.20;;
20080;SDS011;10200;49.232;9.222;2023-12-20T05:08:35;3.47;;;2.70;;
20080;SDS011;10200;49.232;9.222;2023-12-20T05:11:01;2.20;;;2.00;;
20080;SDS011;10200;49.232;9.222;2023-12-20T05:13:27;2.43;;;2.23;;
20080;SDS011;10200;49.232;9.222;2023-12-20T05:15:52;2.30;;;2.10;;
20080;SDS011;10200;49.232;9.222;2023-12-20T05:18:18;3.10;;;2.40;;
20080;SDS011;10200;49.232;9.222;2023-12-20T05:20:43;2.50;;;2.30;;
20080;SDS011;10200;49.232;9.222;2023-12-20T05:23:09;2.40;;;2.20;;
20080;SDS011;10200;49.232;9.222;2023-12-20T05:25:34;2.63;;;2.43;;
20080;SDS011;10200;49.232;9.222;2023-12-20T05:28:00;6.60;;;2.43;;
20080;SDS011;10200;49.232;9.222;2023-12-20T05:30:26;3.03;;;2.43;;
20080;SDS011;10200;49.232;9.222;2023-12-20T05:32:51;2.50;;;2.30;;
20080;SDS011;10200;49.232;9.222;2023-12-20T05:35:17;2.80;;;2.33;;
20080;SDS011;10200;49.232;9.222;2023-12-20T05:37:43;3.40;;;2.47;;
20080;SDS011;10200;49.232;9.222;2023-12-20T05:40:08;2.57;;;2.30;;
20080;SDS011;10200;49.232;9.222;2023-12-20T05:42:37;3.97;;;2.77;;
20080;SDS011;10200;49.232;9.222;2023-12-20T05:45:03;3.23;;;2.93;;
20080;SDS011;10200;49.232;9.222;2023-12-20T05:47:29;2.53;;;2.33;;
20080;SDS011;10200;49.232;9.222;2023-12-20T05:49:54;3.43;;;2.87;;
20080;SDS011;10200;49.232;9.222;2023-12-20T05:52:20;3.23;;;2.50;;
20080;SDS011;10200;49.232;9.222;2023-12-20T05:54:45;3.20;;;2.67;;
20080;SDS011;10200;49.232;9.222;2023-12-20T05:57:11;3.87;;;2.67;;
20080;SDS011;10200;49.232;9.222;2023-12-20T05:59:36;4.67;;;2.83;;
20080;SDS011;10200;49.232;9.222;2023-12-20T06:02:03;3.13;;;2.80;;
20080;SDS011;10200;49.232;9.222;2023-12-20T06:04:29;3.43;;;2.87;;
20080;SDS011;10200;49.232;9.222;2023-12-20T06:06:54;3.23;;;2.50;;
20080;SDS011;10200;49.232;9.222;2023-12-20T06:09:20;3.50;;;2.40;;
20080;SDS011;10200;49.232;9.222;2023-12-20T06:11:45;4.57;;;3.07;;
20080;SDS011;10200;49.232;9.222;2023-12-20T06:14:11;3.57;;;3.07;;
20080;SDS011;10200;49.232;9.222;2023-12-20T06:16:36;3.10;;;2.80;;
20080;SDS011;10200;49.232;9.222;2023-12-20T06:19:02;3.07;;;2.73;;
20080;SDS011;10200;49.232;9.222;2023-12-20T06:21:28;2.90;;;2.60;;
20080;SDS011;10200;49.232;9.222;2023-12-20T06:23:53;3.37;;;2.83;;
20080;SDS011;10200;49.232;9.222;2023-12-20T06:26:19;3.40;;;3.10;;
20080;SDS011;10200;49.232;9.222;2023-12-20T06:28:45;4.67;;;3.03;;
20080;SDS011;10200;49.232;9.222;2023-12-20T06:31:11;3.67;;;2.90;;
20080;SDS011;10200;49.232;9.222;2023-12-20T06:33:36;3.40;;;3.10;;
20080;SDS011;10200;49.232;9.222;2023-12-20T06:36:02;4.17;;;3.03;;
20080;SDS011;10200;49.232;9.222;2023-12-20T06:38:28;3.87;;;3.47;;
20080;SDS011;10200;49.232;9.222;2023-12-20T06:40:53;3.50;;;3.13;;
20080;SDS011;10200;49.232;9.222;2023-12-20T06:43:19;3.77;;;3.40;;
20080;SDS011;10200;49.232;9.222;2023-12-20T06:45:44;6.83;;;3.30;;
20080;SDS011;10200;49.232;9.222;2023-12-20T06:48:10;4.63;;;3.73;;
20080;SDS011;10200;49.232;9.222;2023-12-20T06:50:38;4.47;;;3.43;;
20080;SDS011;10200;49.232;9.222;2023-12-20T06:53:05;4.30;;;3.80;;
20080;SDS011;10200;49.232;9.222;2023-12-20T06:55:32;4.77;;;4.17;;
20080;SDS011;10200;49.232;9.222;2023-12-20T06:57:58;4.27;;;3.87;;
20080;SDS011;10200;49.232;9.222;2023-12-20T07:00:24;4.43;;;3.77;;
20080;SDS011;10200;49.232;9.222;2023-12-20T07:02:50;6.57;;;4.00;;
20080;SDS011;10200;49.232;9.222;2023-12-20T07:05:16;5.07;;;4.10;;
20080;SDS011;10200;49.232;9.222;2023-12-20T07:07:44;4.33;;;3.93;;
20080;SDS011;10200;49.232;9.222;2023-12-20T07:10:10;5.97;;;4.47;;
20080;SDS011;10200;49.232;9.222;2023-12-20T07:12:36;5.33;;;3.90;;
20080;SDS011;10200;49.232;9.222;2023-12-20T07:15:02;4.87;;;3.97;;
20080;SDS011;10200;49.232;9.222;2023-12-20T07:17:28;4.87;;;4.00;;
20080;SDS011;10200;49.232;9.222;2023-12-20T07:19:53;5.47;;;4.20;;
20080;SDS011;10200;49.232;9.222;2023-12-20T07:22:19;4.37;;;3.77;;
20080;SDS011;10200;49.232;9.222;2023-12-20T07:24:44;4.37;;;3.97;;
20080;SDS011;10200;49.232;9.222;2023-12-20T07:27:10;5.60;;;3.80;;
20080;SDS011;10200;49.232;9.222;2023-12-20T07:29:36;4.40;;;3.80;;
20080;SDS011;10200;49.232;9.222;2023-12-20T07:32:02;5.97;;;3.77;;
20080;SDS011;10200;49.232;9.222;2023-12-20T07:34:27;6.50;;;3.27;;
20080;SDS011;10200;49.232;9.222;2023-12-20T07:36:53;3.53;;;3.23;;
20080;SDS011;10200;49.232;9.222;2023-12-20T07:39:18;4.57;;;3.50;;
20080;SDS011;10200;49.232;9.222;2023-12-20T07:41:44;5.80;;;4.80;;
20080;SDS011;10200;49.232;9.222;2023-12-20T07:44:09;6.07;;;4.00;;
20080;SDS011;10200;49.232;9.222;2023-12-20T07:46:35;5.77;;;3.40;;
20080;SDS011;10200;49.232;9.222;2023-12-20T07:49:00;3.40;;;3.10;;
20080;SDS011;10200;49.232;9.222;2023-12-20T07:51:26;5.87;;;3.40;;
20080;SDS011;10200;49.232;9.222;2023-12-20T07:53:52;3.50;;;3.17;;
20080;SDS011;10200;49.232;9.222;2023-12-20T07:56:18;4.93;;;3.73;;
20080;SDS011;10200;49.232;9.222;2023-12-20T07:58:44;5.37;;;3.90;;
20080;SDS011;10200;49.232;9.222;2023-12-20T08:01:11;9.50;;;3.53;;
20080;SDS011;10200;49.232;9.222;2023-12-20T08:03:37;5.23;;;2.97;;
20080;SDS011;10200;49.232;9.222;2023-12-20T08:06:03;5.47;;;4.13;;
20080;SDS011;10200;49.232;9.222;2023-12-20T08:08:28;3.00;;;2.63;;
20080;SDS011;10200;49.232;9.222;2023-12-20T08:10:54;4.13;;;2.87;;
20080;SDS011;10200;49.232;9.222;2023-12-20T08:13:20;3.00;;;2.50;;
20080;SDS011;10200;49.232;9.222;2023-12-20T08:15:50;3.37;;;2.60;;
20080;SDS011;10200;49.232;9.222;2023-12-20T08:18:15;4.97;;;3.20;;
20080;SDS011;10200;49.232;9.222;2023-12-20T08:20:41;3.83;;;3.10;;
20080;SDS011;10200;49.232;9.222;2023-12-20T08:23:06;4.27;;;3.10;;
20080;SDS011;10200;49.232;9.222;2023-12-20T08:25:32;3.40;;;3.10;;
20080;SDS011;10200;49.232;9.222;2023-12-20T08:27:57;4.67;;;3.30;;
20080;SDS011;10200;49.232;9.222;2023-12-20T08:30:23;3.50;;;2.77;;
20080;SDS011;10200;49.232;9.222;2023-12-20T08:32:48;3.07;;;2.63;;
20080;SDS011;10200;49.232;9.222;2023-12-20T08:35:14;3.83;;;3.40;;
20080;SDS011;10200;49.232;9.222;2023-12-20T08:37:39;3.90;;;3.10;;
20080;SDS011;10200;49.232;9.222;2023-12-20T08:40:05;5.27;;;2.80;;
20080;SDS011;10200;49.232;9.222;2023-12-20T08:42:31;4.43;;;3.47;;
20080;SDS011;10200;49.232;9.222;2023-12-20T08:44:57;5.30;;;3.63;;
20080;SDS011;10200;49.232;9.222;2023-12-20T08:47:25;4.60;;;3.90;;
20080;SDS011;10200;49.232;9.222;2023-12-20T08:49:51;2.60;;;2.33;;
20080;SDS011;10200;49.232;9.222;2023-12-20T08:52:21;3.00;;;2.73;;
20080;SDS011;10200;49.232;9.222;2023-12-20T08:54:48;2.73;;;2.53;;
20080;SDS011;10200;49.232;9.222;2023-12-20T08:57:14;3.50;;;2.57;;
20080;SDS011;10200;49.232;9.222;2023-12-20T08:59:39;3.90;;;2.57;;
20080;SDS011;10200;49.232;9.222;2023-12-20T09:02:05;2.53;;;2.33;;
20080;SDS011;10200;49.232;9.222;2023-12-20T09:04:30;2.90;;;2.13;;
20080;SDS011;10200;49.232;9.222;2023-12-20T09:06:59;3.00;;;2.10;;
20080;SDS011;10200;49.232;9.222;2023-12-20T09:09:26;3.90;;;1.90;;
20080;SDS011;10200;49.232;9.222;2023-12-20T09:11:51;3.13;;;2.20;;
20080;SDS011;10200;49.232;9.222;2023-12-20T09:14:17;2.97;;;1.87;;
20080;SDS011;10200;49.232;9.222;2023-12-20T09:16:42;1.60;;;1.50;;
20080;SDS011;10200;49.232;9.222;2023-12-20T09:19:08;2.67;;;1.60;;
20080;SDS011;10200;49.232;9.222;2023-12-20T09:21:34;2.17;;;1.87;;
20080;SDS011;10200;49.232;9.222;2023-12-20T09:23:59;3.97;;;2.07;;
20080;SDS011;10200;49.232;9.222;2023-12-20T09:26:25;2.43;;;1.70;;
20080;SDS011;10200;49.232;9.222;2023-12-20T09:28:50;3.67;;;2.13;;
20080;SDS011;10200;49.232;9.222;2023-12-20T09:31:16;3.77;;;2.00;;
20080;SDS011;10200;49.232;9.222;2023-12-20T09:33:42;2.13;;;1.70;;
20080;SDS011;10200;49.232;9.222;2023-12-20T09:36:07;4.13;;;2.23;;
20080;SDS011;10200;49.232;9.222;2023-12-20T09:38:33;2.53;;;2.30;;
20080;SDS011;10200;49.232;9.222;2023-12-20T09:40:59;5.70;;;2.20;;
20080;SDS011;10200;49.232;9.222;2023-12-20T09:43:27;3.97;;;2.10;;
20080;SDS011;10200;49.232;9.222;2023-12-20T09:45:54;2.60;;;2.00;;
20080;SDS011;10200;49.232;9.222;2023-12-20T09:48:27;4.60;;;2.17;;
20080;SDS011;10200;49.232;9.222;2023-12-20T09:50:53;2.40;;;1.80;;
20080;SDS011;10200;49.232;9.222;2023-12-20T09:53:19;2.10;;;1.70;;
20080;SDS011;10200;49.232;9.222;2023-12-20T09:55:48;3.03;;;1.80;;
20080;SDS011;10200;49.232;9.222;2023-12-20T09:58:14;3.63;;;1.60;;
20080;SDS011;10200;49.232;9.222;2023-12-20T10:00:40;6.37;;;2.40;;
20080;SDS011;10200;49.232;9.222;2023-12-20T10:03:06;3.97;;;1.60;;
20080;SDS011;10200;49.232;9.222;2023-12-20T10:05:33;6.20;;;1.73;;
20080;SDS011;10200;49.232;9.222;2023-12-20T10:07:59;3.03;;;2.03;;
20080;SDS011;10200;49.232;9.222;2023-12-20T10:10:25;2.70;;;1.90;;
20080;SDS011;10200;49.232;9.222;2023-12-20T10:15:46;4.90;;;1.60;;
20080;SDS011;10200;49.232;9.222;2023-12-20T10:18:14;2.67;;;1.40;;
20080;SDS011;10200;49.232;9.222;2023-12-20T10:20:41;8.90;;;2.60;;
20080;SDS011;10200;49.232;9.222;2023-12-20T10:23:07;5.30;;;1.87;;
20080;SDS011;10200;49.232;9.222;2023-12-20T10:25:33;6.80;;;2.23;;
20080;SDS011;10200;49.232;9.222;2023-12-20T10:28:09;7.07;;;1.80;;
20080;SDS011;10200;49.232;9.222;2023-12-20T10:30:47;6.60;;;1.60;;
20080;SDS011;10200;49.232;9.222;2023-12-20T10:33:13;11.63;;;3.73;;
20080;SDS011;10200;49.232;9.222;2023-12-20T10:35:39;8.17;;;2.70;;
20080;SDS011;10200;49.232;9.222;2023-12-20T10:38:06;4.30;;;1.80;;
20080;SDS011;10200;49.232;9.222;2023-12-20T10:40:35;2.90;;;1.47;;
20080;SDS011;10200;49.232;9.222;2023-12-20T10:43:02;7.50;;;2.27;;
20080;SDS011;10200;49.232;9.222;2023-12-20T10:45:28;2.37;;;1.87;;
20080;SDS011;10200;49.232;9.222;2023-12-20T10:47:53;5.37;;;1.70;;
20080;SDS011;10200;49.232;9.222;2023-12-20T10:50:20;2.77;;;1.27;;
20080;SDS011;10200;49.232;9.222;2023-12-20T10:52:46;4.03;;;1.40;;
20080;SDS011;10200;49.232;9.222;2023-12-20T10:55:13;4.90;;;1.60;;
20080;SDS011;10200;49.232;9.222;2023-12-20T10:57:39;5.53;;;1.70;;
20080;SDS011;10200;49.232;9.222;2023-12-20T11:00:05;4.07;;;1.43;;
20080;SDS011;10200;49.232;9.222;2023-12-20T11:02:36;6.57;;;1.67;;
20080;SDS011;10200;49.232;9.222;2023-12-20T11:13:32;3.20;;;1.40;;
20080;SDS011;10200;49.232;9.222;2023-12-20T11:16:02;5.57;;;1.63;;
20080;SDS011;10200;49.232;9.222;2023-12-20T11:18:30;3.63;;;1.30;;
20080;SDS011;10200;49.232;9.222;2023-12-20T11:20:59;4.17;;;1.47;;
20080;SDS011;10200;49.232;9.222;2023-12-20T11:23:29;6.00;;;1.90;;
20080;SDS011;10200;49.232;9.222;2023-12-20T11:25:56;4.87;;;1.80;;
20080;SDS011;10200;49.232;9.222;2023-12-20T11:28:25;7.03;;;1.80;;
20080;SDS011;10200;49.232;9.222;2023-12-20T11:30:55;5.23;;;1.73;;
20080;SDS011;10200;49.232;9.222;2023-12-20T11:33:45;5.90;;;1.77;;
20080;SDS011;10200;49.232;9.222;2023-12-20T11:36:18;5.73;;;1.50;;
20080;SDS011;10200;49.232;9.222;2023-12-20T11:39:06;6.53;;;1.77;;
20080;SDS011;10200;49.232;9.222;2023-12-20T11:41:33;5.37;;;2.63;;
20080;SDS011;10200;49.232;9.222;2023-12-20T11:43:59;3.77;;;1.80;;
20080;SDS011;10200;49.232;9.222;2023-12-20T11:46:26;3.07;;;1.23;;
20080;SDS011;10200;49.232;9.222;2023-12-20T11:48:51;5.73;;;1.63;;
20080;SDS011;10200;49.232;9.222;2023-12-20T11:51:17;3.70;;;1.83;;
20080;SDS011;10200;49.232;9.222;2023-12-20T11:53:42;5.47;;;1.80;;
20080;SDS011;10200;49.232;9.222;2023-12-20T11:56:08;8.63;;;2.23;;
20080;SDS011;10200;49.232;9.222;2023-12-20T11:58:35;4.53;;;1.83;;
20080;SDS011;10200;49.232;9.222;2023-12-20T12:01:01;6.50;;;1.93;;
20080;SDS011;10200;49.232;9.222;2023-12-20T12:03:27;7.50;;;2.03;;
20080;SDS011;10200;49.232;9.222;2023-12-20T12:05:53;4.93;;;1.90;;
20080;SDS011;10200;49.232;9.222;2023-12-20T12:08:18;4.00;;;1.83;;
20080;SDS011;10200;49.232;9.222;2023-12-20T12:10:44;6.73;;;2.27;;
20080;SDS011;10200;49.232;9.222;2023-12-20T12:13:10;4.83;;;1.63;;
20080;SDS011;10200;49.232;9.222;2023-12-20T12:15:36;7.23;;;2.00;;
20080;SDS011;10200;49.232;9.222;2023-12-20T12:18:02;4.13;;;1.80;;
20080;SDS011;10200;49.232;9.222;2023-12-20T12:20:30;6.00;;;1.80;;
20080;SDS011;10200;49.232;9.222;2023-12-20T12:25:25;3.37;;;2.27;;
20080;SDS011;10200;49.232;9.222;2023-12-20T12:27:52;4.53;;;2.30;;
20080;SDS011;10200;49.232;9.222;2023-12-20T12:30:18;6.53;;;1.93;;
20080;SDS011;10200;49.232;9.222;2023-12-20T12:32:44;8.67;;;2.57;;
20080;SDS011;10200;49.232;9.222;2023-12-20T12:35:10;5.70;;;2.73;;
20080;SDS011;10200;49.232;9.222;2023-12-20T12:37:38;3.90;;;2.07;;
20080;SDS011;10200;49.232;9.222;2023-12-20T12:40:09;7.33;;;2.40;;
20080;SDS011;10200;49.232;9.222;2023-12-20T12:42:36;6.93;;;2.23;;
20080;SDS011;10200;49.232;9.222;2023-12-20T12:45:02;13.67;;;2.77;;
20080;SDS011;10200;49.232;9.222;2023-12-20T12:47:29;5.60;;;2.03;;
20080;SDS011;10200;49.232;9.222;2023-12-20T12:49:55;4.40;;;1.83;;
20080;SDS011;10200;49.232;9.222;2023-12-20T12:52:21;5.17;;;2.47;;
20080;SDS011;10200;49.232;9.222;2023-12-20T12:54:47;7.97;;;2.37;;
20080;SDS011;10200;49.232;9.222;2023-12-20T12:57:14;9.67;;;2.47;;
20080;SDS011;10200;49.232;9.222;2023-12-20T12:59:41;5.03;;;1.93;;
20080;SDS011;10200;49.232;9.222;2023-12-20T13:02:07;4.30;;;2.10;;
20080;SDS011;10200;49.232;9.222;2023-12-20T13:04:33;4.40;;;2.03;;
20080;SDS011;10200;49.232;9.222;2023-12-20T13:06:59;4.83;;;2.30;;
20080;SDS011;10200;49.232;9.222;2023-12-20T13:09:25;5.50;;;1.83;;
20080;SDS011;10200;49.232;9.222;2023-12-20T13:11:50;6.93;;;2.17;;
20080;SDS011;10200;49.232;9.222;2023-12-20T13:14:16;3.60;;;1.53;;
20080;SDS011;10200;49.232;9.222;2023-12-20T13:16:41;5.93;;;2.13;;
20080;SDS011;10200;49.232;9.222;2023-12-20T13:19:09;5.10;;;2.43;;
20080;SDS011;10200;49.232;9.222;2023-12-20T13:21:35;8.73;;;2.30;;
20080;SDS011;10200;49.232;9.222;2023-12-20T13:24:01;7.07;;;2.33;;
20080;SDS011;10200;49.232;9.222;2023-12-20T13:26:27;8.30;;;2.93;;
20080;SDS011;10200;49.232;9.222;2023-12-20T13:28:53;8.40;;;2.77;;
20080;SDS011;10200;49.232;9.222;2023-12-20T13:31:19;5.53;;;2.57;;
20080;SDS011;10200;49.232;9.222;2023-12-20T13:33:45;4.93;;;1.90;;
20080;SDS011;10200;49.232;9.222;2023-12-20T13:36:11;5.20;;;2.37;;
20080;SDS011;10200;49.232;9.222;2023-12-20T13:38:37;11.70;;;3.20;;
20080;SDS011;10200;49.232;9.222;2023-12-20T13:41:03;9.23;;;3.30;;
20080;SDS011;10200;49.232;9.222;2023-12-20T13:43:29;8.33;;;2.20;;
20080;SDS011;10200;49.232;9.222;2023-12-20T13:45:55;7.27;;;2.13;;
20080;SDS011;10200;49.232;9.222;2023-12-20T13:48:21;8.83;;;2.90;;
20080;SDS011;10200;49.232;9.222;2023-12-20T13:50:46;8.07;;;2.30;;
20080;SDS011;10200;49.232;9.222;2023-12-20T13:53:12;10.00;;;2.97;;
20080;SDS011;10200;49.232;9.222;2023-12-20T13:55:38;6.30;;;2.67;;
20080;SDS011;10200;49.232;9.222;2023-12-20T13:58:05;6.17;;;2.40;;
20080;SDS011;10200;49.232;9.222;2023-12-20T14:00:30;12.83;;;2.97;;
20080;SDS011;10200;49.232;9.222;2023-12-20T14:02:56;6.13;;;2.70;;
20080;SDS011;10200;49.232;9.222;2023-12-20T14:05:22;6.70;;;2.83;;
20080;SDS011;10200;49.232;9.222;2023-12-20T14:07:48;8.93;;;2.77;;
20080;SDS011;10200;49.232;9.222;2023-12-20T14:10:15;7.77;;;2.00;;
20080;SDS011;10200;49.232;9.222;2023-12-20T14:12:40;7.90;;;2.40;;
20080;SDS011;10200;49.232;9.222;2023-12-20T14:15:07;7.07;;;2.37;;
20080;SDS011;10200;49.232;9.222;2023-12-20T14:17:36;5.97;;;2.10;;
20080;SDS011;10200;49.232;9.222;2023-12-20T14:20:03;9.13;;;2.77;;
20080;SDS011;10200;49.232;9.222;2023-12-20T14:22:31;10.23;;;2.53;;
20080;SDS011;10200;49.232;9.222;2023-12-20T14:24:56;6.83;;;2.47;;
20080;SDS011;10200;49.232;9.222;2023-12-20T14:27:22;6.90;;;2.40;;
20080;SDS011;10200;49.232;9.222;2023-12-20T14:29:49;3.20;;;1.60;;
20080;SDS011;10200;49.232;9.222;2023-12-20T14:32:15;6.77;;;2.77;;
20080;SDS011;10200;49.232;9.222;2023-12-20T14:34:41;5.30;;;2.20;;
20080;SDS011;10200;49.232;9.222;2023-12-20T14:37:07;7.43;;;2.87;;
20080;SDS011;10200;49.232;9.222;2023-12-20T14:39:32;8.43;;;3.30;;
20080;SDS011;10200;49.232;9.222;2023-12-20T14:41:58;9.27;;;2.60;;
20080;SDS011;10200;49.232;9.222;2023-12-20T14:44:23;4.83;;;1.70;;
20080;SDS011;10200;49.232;9.222;2023-12-20T14:46:50;7.53;;;2.57;;
20080;SDS011;10200;49.232;9.222;2023-12-20T14:49:15;9.00;;;2.20;;
20080;SDS011;10200;49.232;9.222;2023-12-20T14:51:43;5.17;;;2.17;;
20080;SDS011;10200;49.232;9.222;2023-12-20T14:54:09;6.50;;;2.43;;
20080;SDS011;10200;49.232;9.222;2023-12-20T14:56:35;6.80;;;2.67;;